Time;durP1;ratioP1;P1;durP2;ratioP2;P2;SDS_P1;SDS_P2;PMS_P1;PMS_P2;Temp;Humidity;BMP_temperature;BMP_pressure;BME280_temperature;BME280_humidity;BME280_pressure;Samples;Min_cycle;Max_cycle;Signal;HPM_P1;HPM_P2
2023/08/06 00:01:23;;;;;;;2.42;1.48;;;;;;;17.48;67.70;100284.72;5129642;28;20056;-60
2023/08/06 00:03:51;;;;;;;5.03;1.77;;;;;;;17.48;67.98;100282.00;5126140;28;20135;-61
2023/08/06 00:06:18;;;;;;;4.20;1.92;;;;;;;17.49;67.73;100289.03;5125800;28;20048;-60
2023/08/06 00:08:47;;;;;;;3.30;1.83;;;;;;;17.48;67.58;100295.56;5135281;28;20073;-60
2023/08/06 00:11:15;;;;;;;5.75;1.90;;;;;;;17.48;67.43;100290.13;5137685;28;20051;-60
2023/08/06 00:13:43;;;;;;;3.97;1.83;;;;;;;17.48;67.66;100288.22;5166373;27;20038;-60
2023/08/06 00:16:12;;;;;;;3.28;1.80;;;;;;;17.46;67.52;100298.56;5147731;27;20505;-60
2023/08/06 00:18:40;;;;;;;3.35;1.65;;;;;;;17.44;67.40;100286.34;5125791;28;20052;-60
2023/08/06 00:21:08;;;;;;;4.57;1.63;;;;;;;17.46;67.37;100284.97;5125662;28;20044;-61
2023/08/06 00:23:36;;;;;;;4.28;1.63;;;;;;;17.45;67.58;100290.69;5141463;27;20047;-59
2023/08/06 00:26:05;;;;;;;2.13;1.50;;;;;;;17.46;67.82;100284.97;5149503;27;20077;-60
2023/08/06 00:28:33;;;;;;;4.65;1.80;;;;;;;17.45;67.67;100283.38;5150211;27;20047;-60
2023/08/06 00:31:01;;;;;;;3.45;1.95;;;;;;;17.44;67.66;100279.03;5146290;28;20047;-60
2023/08/06 00:33:29;;;;;;;2.35;1.52;;;;;;;17.44;67.91;100281.75;5142847;28;20073;-61
2023/08/06 00:35:56;;;;;;;2.00;1.30;;;;;;;17.44;67.66;100281.75;5146516;28;20062;-59
2023/08/06 00:38:24;;;;;;;2.47;1.58;;;;;;;17.44;67.55;100279.03;5127263;28;20131;-61
2023/08/06 00:40:53;;;;;;;5.18;1.55;;;;;;;17.43;67.57;100280.13;5125617;28;20047;-60
2023/08/06 00:43:22;;;;;;;3.22;1.65;;;;;;;17.43;67.81;100277.41;5153001;27;20129;-60
2023/08/06 00:45:50;;;;;;;2.05;1.50;;;;;;;17.43;67.70;100274.69;5160678;27;20047;-60
2023/08/06 00:48:18;;;;;;;2.47;1.73;;;;;;;17.43;67.60;100271.16;5146835;27;20553;-60
2023/08/06 00:50:46;;;;;;;3.38;1.67;;;;;;;17.42;67.80;100274.97;5161221;27;20119;-60
2023/08/06 00:53:14;;;;;;;3.03;1.60;;;;;;;17.41;67.99;100268.72;5164394;27;20107;-60
2023/08/06 00:55:45;;;;;;;4.45;1.70;;;;;;;17.41;67.61;100268.72;5150105;27;20051;-60
2023/08/06 00:58:13;;;;;;;2.40;1.77;;;;;;;17.40;67.82;100271.72;5146977;27;20299;-60
2023/08/06 01:00:42;;;;;;;2.20;1.40;;;;;;;17.39;67.89;100270.91;5129168;28;20097;-60
2023/08/06 01:03:10;;;;;;;2.40;1.65;;;;;;;17.39;68.01;100264.66;5128854;27;20081;-60
2023/08/06 01:05:38;;;;;;;4.22;2.08;;;;;;;17.39;68.11;100267.38;5144057;27;20050;-60
2023/08/06 01:08:20;;;;;;;2.75;1.70;;;;;;;17.38;68.00;100263.84;5146368;27;20034;-60
2023/08/06 01:10:58;;;;;;;2.63;1.60;;;;;;;17.38;68.28;100266.56;5170415;27;20074;-60
2023/08/06 01:13:34;;;;;;;3.15;1.63;;;;;;;17.37;68.36;100267.66;5170310;27;20043;-60
2023/08/06 01:16:05;;;;;;;2.25;1.48;;;;;;;17.36;68.41;100257.06;5149725;27;20047;-60
2023/08/06 01:18:33;;;;;;;4.68;1.73;;;;;;;17.36;68.34;100259.78;5128745;28;20073;-60
2023/08/06 01:21:03;;;;;;;2.97;1.60;;;;;;;17.36;68.23;100267.94;5128514;28;20111;-60
2023/08/06 01:23:31;;;;;;;2.00;1.30;;;;;;;17.35;68.31;100267.13;5142600;27;20050;-60
2023/08/06 01:26:11;;;;;;;4.15;1.90;;;;;;;17.35;68.47;100269.84;5160740;27;20062;-60
2023/08/06 01:28:49;;;;;;;3.00;1.60;;;;;;;17.35;68.09;100263.59;5145511;27;20039;-60
2023/08/06 01:31:22;;;;;;;3.78;1.33;;;;;;;17.34;68.18;100265.50;5149164;27;20088;-60
2023/08/06 01:33:51;;;;;;;2.90;1.50;;;;;;;17.34;68.37;100260.06;5146012;27;20058;-61
2023/08/06 01:36:21;;;;;;;3.75;1.50;;;;;;;17.35;68.48;100258.97;5148099;27;20560;-60
2023/08/06 01:38:49;;;;;;;3.30;1.67;;;;;;;17.33;68.49;100261.19;5127964;28;20069;-60
2023/08/06 01:41:17;;;;;;;2.47;1.42;;;;;;;17.34;68.38;100264.69;5128588;28;20047;-60
2023/08/06 01:43:45;;;;;;;1.63;1.27;;;;;;;17.33;68.47;100260.38;5162441;27;20050;-60
2023/08/06 01:46:13;;;;;;;2.25;1.23;;;;;;;17.33;68.62;100257.66;5155450;27;20073;-60
2023/08/06 01:48:41;;;;;;;2.85;1.85;;;;;;;17.31;68.62;100252.50;5144755;27;20106;-60
2023/08/06 01:51:08;;;;;;;1.65;1.20;;;;;;;17.32;68.52;100256.03;5166819;27;20047;-60
2023/08/06 01:53:38;;;;;;;6.18;2.13;;;;;;;17.31;68.46;100263.38;5159971;27;20050;-59
2023/08/06 01:56:06;;;;;;;6.80;1.83;;;;;;;17.32;68.61;100261.47;5143858;27;20073;-59
2023/08/06 01:58:34;;;;;;;3.35;1.67;;;;;;;17.32;68.62;100259.56;5127942;28;20054;-61
2023/08/06 02:01:02;;;;;;;2.30;1.30;;;;;;;17.33;68.64;100254.94;5134530;27;20483;-60
2023/08/06 02:03:30;;;;;;;2.55;1.60;;;;;;;17.33;68.59;100266.63;5148580;27;20047;-60
2023/08/06 02:05:57;;;;;;;1.75;1.35;;;;;;;17.32;68.71;100262.28;5137826;27;20065;-60
2023/08/06 02:08:25;;;;;;;3.05;1.70;;;;;;;17.31;68.84;100263.38;5127622;28;20044;-59
2023/08/06 02:10:54;;;;;;;4.30;1.63;;;;;;;17.32;68.69;100258.75;5127675;28;20051;-60
2023/08/06 02:13:22;;;;;;;3.47;1.67;;;;;;;17.32;68.81;100261.47;5127644;28;20052;-60
2023/08/06 02:15:50;;;;;;;4.68;1.65;;;;;;;17.31;68.89;100257.13;5127829;28;20048;-58
2023/08/06 02:18:18;;;;;;;3.10;1.60;;;;;;;17.31;68.73;100260.66;5127404;28;20051;-60
2023/08/06 02:20:56;;;;;;;4.18;1.50;;;;;;;17.31;68.73;100260.66;5127559;28;20047;-60
2023/08/06 02:23:24;;;;;;;2.95;1.42;;;;;;;17.30;68.96;100253.59;5139653;27;20046;-60
2023/08/06 02:25:59;;;;;;;3.20;1.67;;;;;;;17.30;69.08;100255.50;5137493;27;20038;-60
2023/08/06 02:28:27;;;;;;;4.27;1.50;;;;;;;17.29;69.02;100260.13;5140118;27;20530;-61
2023/08/06 02:30:55;;;;;;;3.85;1.45;;;;;;;17.28;69.16;100258.50;5127463;28;20047;-60
2023/08/06 02:33:23;;;;;;;2.80;1.55;;;;;;;17.29;69.24;100259.31;5134763;27;20072;-61
2023/08/06 02:35:51;;;;;;;3.10;1.42;;;;;;;17.28;69.19;100249.53;5148118;27;20047;-60
2023/08/06 02:38:19;;;;;;;5.93;1.90;;;;;;;17.28;69.04;100253.06;5129669;27;20052;-60
2023/08/06 02:40:47;;;;;;;5.88;2.00;;;;;;;17.28;69.11;100254.97;5127052;28;20044;-60
2023/08/06 02:43:16;;;;;;;3.60;1.20;;;;;;;17.27;68.85;100256.06;5152611;27;20095;-60
2023/08/06 02:45:44;;;;;;;4.45;1.63;;;;;;;17.26;69.14;100254.44;5155188;27;20043;-61
2023/08/06 02:48:11;;;;;;;4.28;1.40;;;;;;;17.26;69.15;100254.44;5127239;28;20051;-60
2023/08/06 02:50:40;;;;;;;1.67;1.50;;;;;;;17.24;69.07;100246.59;5157019;27;20042;-60
2023/08/06 02:53:09;;;;;;;7.75;1.70;;;;;;;17.24;69.20;100243.88;5136871;27;20044;-60
2023/08/06 02:55:37;;;;;;;2.67;1.33;;;;;;;17.24;69.22;100254.72;5126639;28;20047;-60
2023/08/06 02:58:05;;;;;;;5.50;1.52;;;;;;;17.23;69.41;100243.06;5141224;27;20047;-60
2023/08/06 03:00:34;;;;;;;4.05;1.70;;;;;;;17.22;69.29;100243.34;5149398;27;20043;-60
2023/08/06 03:03:01;;;;;;;3.58;1.35;;;;;;;17.21;69.40;100247.94;5126667;28;20397;-60
2023/08/06 03:05:29;;;;;;;6.43;2.17;;;;;;;17.21;69.28;100247.94;5126857;28;20062;-60
2023/08/06 03:07:57;;;;;;;3.22;1.25;;;;;;;17.20;69.40;100243.63;5126822;28;20051;-60
2023/08/06 03:10:25;;;;;;;6.57;2.08;;;;;;;17.21;69.34;100242.53;5126351;28;20092;-60
2023/08/06 03:12:53;;;;;;;6.63;1.85;;;;;;;17.20;69.38;100240.09;5126296;28;20481;-60
2023/08/06 03:15:20;;;;;;;2.22;1.38;;;;;;;17.19;69.36;100236.56;5126757;28;20055;-60
2023/08/06 03:17:49;;;;;;;3.67;1.63;;;;;;;17.19;69.31;100244.69;5126490;28;20048;-60
2023/08/06 03:20:17;;;;;;;2.58;1.48;;;;;;;17.19;69.54;100238.47;5126319;28;20048;-61
2023/08/06 03:22:45;;;;;;;4.72;1.50;;;;;;;17.18;69.51;100243.09;5128145;27;20129;-61
2023/08/06 03:25:13;;;;;;;2.88;1.73;;;;;;;17.18;69.40;100251.22;5167439;27;20072;-61
2023/08/06 03:27:41;;;;;;;3.83;1.85;;;;;;;17.17;69.47;100240.66;5138387;27;20043;-61
2023/08/06 03:30:09;;;;;;;2.78;1.63;;;;;;;17.18;69.40;100247.69;5126147;27;20044;-61
2023/08/06 03:32:37;;;;;;;3.30;1.50;;;;;;;17.16;69.45;100241.75;5127404;27;20106;-61
2023/08/06 03:35:07;;;;;;;3.53;1.80;;;;;;;17.17;69.46;100255.03;5146964;27;20071;-60
2023/08/06 03:37:35;;;;;;;4.53;1.85;;;;;;;17.17;69.44;100246.06;5135371;27;20167;-61
2023/08/06 03:40:03;;;;;;;2.25;1.48;;;;;;;17.17;69.70;100246.06;5125717;28;20069;-60
2023/08/06 03:42:31;;;;;;;5.45;2.10;;;;;;;17.16;69.55;100247.16;5133026;27;20129;-60
2023/08/06 03:44:59;;;;;;;2.70;1.80;;;;;;;17.16;69.64;100247.97;5135044;28;20067;-61
2023/08/06 03:47:27;;;;;;;4.95;1.90;;;;;;;17.15;69.54;100251.78;5126285;28;20446;-60
2023/08/06 03:49:54;;;;;;;3.33;1.60;;;;;;;17.15;69.35;100249.06;5143495;27;20057;-60
2023/08/06 03:52:24;;;;;;;2.50;1.63;;;;;;;17.15;69.53;100248.25;5163193;27;20043;-61
2023/08/06 03:54:51;;;;;;;6.50;1.63;;;;;;;17.15;69.78;100257.22;5144086;28;20076;-61
2023/08/06 03:57:19;;;;;;;2.65;1.67;;;;;;;17.15;69.59;100248.25;5154701;27;20047;-60
2023/08/06 03:59:47;;;;;;;3.65;1.92;;;;;;;17.14;69.56;100252.88;5166524;27;20380;-60
2023/08/06 04:02:21;;;;;;;3.60;1.70;;;;;;;17.14;69.52;100252.06;5125812;28;20058;-60
2023/08/06 04:04:50;;;;;;;3.80;1.92;;;;;;;17.14;69.56;100252.06;5126190;28;20052;-60
2023/08/06 04:07:18;;;;;;;3.42;1.60;;;;;;;17.13;69.62;100261.31;5125929;28;20115;-61
2023/08/06 04:09:58;;;;;;;3.90;2.35;;;;;;;17.13;69.54;100258.59;5125088;28;20117;-61
2023/08/06 04:12:26;;;;;;;3.13;1.65;;;;;;;17.13;69.63;100259.41;5124987;28;20459;-60
2023/08/06 04:14:55;;;;;;;3.03;1.60;;;;;;;17.12;69.75;100252.34;5125147;28;20055;-60
2023/08/06 04:17:23;;;;;;;2.58;1.52;;;;;;;17.13;69.56;100264.03;5125835;28;20097;-61
2023/08/06 04:19:52;;;;;;;2.45;1.80;;;;;;;17.13;69.70;100266.72;5125651;28;20066;-60
2023/08/06 04:22:21;;;;;;;4.68;1.77;;;;;;;17.12;69.55;100270.53;5125473;28;20044;-61
2023/08/06 04:24:49;;;;;;;2.63;1.75;;;;;;;17.13;69.68;100269.44;5147775;27;20089;-61
2023/08/06 04:27:19;;;;;;;4.30;2.03;;;;;;;17.09;69.59;100263.75;5157740;27;20053;-60
2023/08/06 04:29:47;;;;;;;4.63;1.60;;;;;;;17.11;69.68;100272.44;5147866;27;20047;-61
2023/08/06 04:32:15;;;;;;;3.72;1.48;;;;;;;17.11;69.65;100277.88;5129406;27;20450;-60
2023/08/06 04:34:43;;;;;;;2.97;1.80;;;;;;;17.11;69.58;100277.88;5149004;27;20051;-60
2023/08/06 04:37:11;;;;;;;3.13;1.80;;;;;;;17.11;69.72;100275.16;5142181;27;20295;-61
2023/08/06 04:39:38;;;;;;;2.72;1.83;;;;;;;17.10;69.63;100278.16;5129003;27;20048;-60
2023/08/06 04:42:07;;;;;;;3.80;1.70;;;;;;;17.09;69.79;100282.78;5151286;27;20046;-60
2023/08/06 04:44:36;;;;;;;2.35;1.40;;;;;;;17.07;69.79;100282.25;5170994;27;20055;-61
2023/08/06 04:47:04;;;;;;;2.70;1.60;;;;;;;17.07;69.78;100282.25;5138588;27;20079;-61
2023/08/06 04:49:32;;;;;;;3.00;1.60;;;;;;;17.07;69.84;100284.94;5128945;27;20081;-62
2023/08/06 04:52:00;;;;;;;3.17;1.80;;;;;;;17.08;69.65;100288.47;5129022;28;20051;-60
2023/08/06 04:54:28;;;;;;;3.72;1.77;;;;;;;17.08;69.53;100288.47;5135799;27;20051;-61
2023/08/06 04:56:55;;;;;;;3.55;2.00;;;;;;;17.09;69.77;100290.09;5129020;28;20058;-60
2023/08/06 04:59:23;;;;;;;3.38;1.70;;;;;;;17.07;69.65;100293.09;5129216;27;20096;-60
2023/08/06 05:01:52;;;;;;;2.60;1.52;;;;;;;17.07;69.72;100298.53;5129041;28;20477;-60
2023/08/06 05:04:20;;;;;;;2.15;1.63;;;;;;;17.08;69.89;100296.63;5128857;28;20043;-60
2023/08/06 05:06:49;;;;;;;3.80;1.83;;;;;;;17.06;69.87;100301.53;5129079;28;20044;-61
2023/08/06 05:09:17;;;;;;;4.10;1.83;;;;;;;17.07;69.69;100303.16;5128530;28;20557;-60
2023/08/06 05:11:44;;;;;;;2.42;1.60;;;;;;;17.04;69.69;100304.50;5128848;27;20051;-61
2023/08/06 05:14:12;;;;;;;2.67;1.83;;;;;;;17.05;69.94;100303.44;5128880;28;20048;-61
2023/08/06 05:16:40;;;;;;;4.32;1.75;;;;;;;17.04;70.23;100306.41;5128751;27;20096;-61
2023/08/06 05:19:09;;;;;;;4.68;2.03;;;;;;;17.06;69.87;100312.38;5128838;28;20074;-62
2023/08/06 05:21:37;;;;;;;3.35;2.03;;;;;;;17.04;69.95;100309.94;5128466;28;20047;-61
2023/08/06 05:24:05;;;;;;;9.60;2.65;;;;;;;17.05;69.95;100317.00;5152416;27;20055;-61
2023/08/06 05:26:32;;;;;;;4.85;1.80;;;;;;;17.05;70.05;100314.28;5166106;27;20047;-61
2023/08/06 05:29:01;;;;;;;4.55;2.03;;;;;;;17.05;70.18;100321.63;5149508;27;20072;-60
2023/08/06 05:31:29;;;;;;;2.75;1.90;;;;;;;17.04;70.33;100320.00;5147229;27;20058;-60
2023/08/06 05:33:57;;;;;;;9.43;2.72;;;;;;;17.03;70.59;100319.19;5140849;27;20069;-60
2023/08/06 05:36:26;;;;;;;4.30;2.50;;;;;;;17.02;70.54;100325.69;5146161;27;20055;-60
2023/08/06 05:38:56;;;;;;;4.10;2.33;;;;;;;17.02;70.48;100331.13;5128138;28;20071;-60
2023/08/06 05:41:24;;;;;;;7.38;2.83;;;;;;;17.02;70.80;100330.31;5136499;27;20097;-61
2023/08/06 05:43:52;;;;;;;5.13;2.17;;;;;;;17.03;70.64;100331.94;5164301;27;20049;-61
2023/08/06 05:46:20;;;;;;;3.22;2.03;;;;;;;17.02;70.34;100343.88;5159647;27;20051;-61
2023/08/06 05:48:47;;;;;;;3.55;2.42;;;;;;;17.01;70.60;100340.38;5134930;27;20536;-61
2023/08/06 05:51:16;;;;;;;5.78;2.17;;;;;;;17.01;70.54;100344.97;5148606;27;20182;-61
2023/08/06 05:53:46;;;;;;;5.15;2.97;;;;;;;17.01;70.86;100345.78;5136731;27;20134;-60
2023/08/06 05:56:14;;;;;;;3.78;2.30;;;;;;;17.01;70.75;100350.41;5128117;28;20077;-61
2023/08/06 05:58:42;;;;;;;4.13;2.25;;;;;;;17.01;70.85;100355.84;5127572;27;20043;-61
2023/08/06 06:01:10;;;;;;;4.28;2.40;;;;;;;16.99;70.77;100352.59;5127801;28;20546;-61
2023/08/06 06:03:38;;;;;;;5.55;3.03;;;;;;;17.01;71.09;100363.97;5127866;28;20047;-60
2023/08/06 06:06:06;;;;;;;4.30;2.35;;;;;;;17.00;70.72;100370.50;5127832;28;20051;-60
2023/08/06 06:08:34;;;;;;;3.95;2.70;;;;;;;17.01;70.82;100366.69;5127210;28;20096;-60
2023/08/06 06:11:03;;;;;;;4.80;2.85;;;;;;;17.00;70.93;100368.59;5127826;27;20035;-60
2023/08/06 06:13:31;;;;;;;3.95;2.70;;;;;;;16.99;70.87;100369.69;5127466;28;20119;-61
2023/08/06 06:15:58;;;;;;;4.25;2.55;;;;;;;16.99;71.03;100375.13;5127673;28;20051;-61
2023/08/06 06:18:26;;;;;;;4.90;2.67;;;;;;;17.00;71.08;100381.34;5127553;28;20565;-61
2023/08/06 06:20:54;;;;;;;8.68;3.17;;;;;;;17.00;71.30;100384.06;5127077;28;20047;-61
2023/08/06 06:23:22;;;;;;;5.32;2.70;;;;;;;17.01;71.18;100383.00;5139602;27;20540;-61
2023/08/06 06:25:51;;;;;;;5.15;2.70;;;;;;;17.02;71.15;100395.47;5164021;27;20043;-61
2023/08/06 06:28:20;;;;;;;4.53;2.65;;;;;;;16.98;70.99;100387.06;5133316;27;20061;-61
2023/08/06 06:30:49;;;;;;;7.10;2.67;;;;;;;17.01;71.26;100400.09;5127549;28;20047;-61
2023/08/06 06:33:16;;;;;;;6.90;2.55;;;;;;;17.01;71.55;100402.00;5133988;27;20043;-61
2023/08/06 06:35:44;;;;;;;5.80;2.45;;;;;;;16.99;71.59;100409.59;5147858;27;20069;-61
2023/08/06 06:38:12;;;;;;;6.40;2.60;;;;;;;17.00;71.72;100413.94;5132275;27;20100;-61
2023/08/06 06:40:40;;;;;;;4.53;2.72;;;;;;;17.00;71.75;100424.81;5126668;28;20420;-61
2023/08/06 06:43:07;;;;;;;4.55;2.40;;;;;;;16.98;71.82;100422.34;5145601;27;20043;-60
2023/08/06 06:45:37;;;;;;;7.25;2.40;;;;;;;16.97;71.61;100423.44;5135043;27;20046;-60
2023/08/06 06:48:05;;;;;;;9.65;2.10;;;;;;;16.97;71.80;100428.06;5168248;27;20051;-60
2023/08/06 06:50:33;;;;;;;5.00;2.50;;;;;;;16.97;72.07;100438.91;5144558;27;20390;-61
2023/08/06 06:53:01;;;;;;;4.13;2.20;;;;;;;16.95;71.83;100441.09;5126514;28;20036;-60
2023/08/06 06:55:28;;;;;;;2.17;1.90;;;;;;;16.91;71.51;100443.53;5126516;28;20120;-60
2023/08/06 06:57:56;;;;;;;3.45;1.58;;;;;;;16.86;71.18;100441.66;5126938;28;20055;-61
2023/08/06 07:00:24;;;;;;;2.17;1.08;;;;;;;16.81;70.95;100444.38;5126645;27;20052;-60
2023/08/06 07:02:53;;;;;;;1.90;1.25;;;;;;;16.78;70.88;100454.97;5126517;28;20048;-60
2023/08/06 07:05:21;;;;;;;2.42;1.20;;;;;;;16.73;70.77;100453.06;5126750;28;20047;-60
2023/08/06 07:07:49;;;;;;;2.08;1.35;;;;;;;16.71;70.50;100457.13;5126483;28;20073;-60
2023/08/06 07:10:17;;;;;;;1.33;1.00;;;;;;;16.68;70.55;100455.78;5126069;28;20047;-60
2023/08/06 07:12:44;;;;;;;2.03;1.30;;;;;;;16.65;70.29;100479.91;5126457;28;20104;-60
2023/08/06 07:15:12;;;;;;;4.07;1.40;;;;;;;16.63;70.36;100466.59;5126734;28;20051;-60
2023/08/06 07:17:40;;;;;;;2.70;1.30;;;;;;;16.62;70.22;100473.09;5126410;28;20485;-61
2023/08/06 07:20:10;;;;;;;1.95;1.30;;;;;;;16.60;70.18;100481.50;5126309;28;20059;-61
2023/08/06 07:22:38;;;;;;;4.20;1.42;;;;;;;16.57;70.10;100497.53;5125992;28;20040;-60
2023/08/06 07:25:06;;;;;;;1.48;1.17;;;;;;;16.53;70.26;100493.72;5126152;28;20051;-60
2023/08/06 07:27:34;;;;;;;1.80;1.30;;;;;;;16.52;70.33;100494.81;5156483;27;20055;-60
2023/08/06 07:30:01;;;;;;;2.00;1.40;;;;;;;16.52;70.44;100502.94;5138284;27;20048;-60
2023/08/06 07:32:29;;;;;;;2.47;2.03;;;;;;;16.51;70.41;100496.69;5126378;28;20035;-60
2023/08/06 07:35:00;;;;;;;2.90;1.52;;;;;;;16.51;70.46;100502.13;5135316;27;20186;-60
2023/08/06 07:37:29;;;;;;;1.17;1.00;;;;;;;16.51;70.53;100507.56;5136776;27;20055;-60
2023/08/06 07:39:57;;;;;;;2.38;1.55;;;;;;;16.50;70.64;100532.22;5141370;27;20051;-60
2023/08/06 07:42:25;;;;;;;2.25;1.45;;;;;;;16.48;70.69;100512.69;5138292;27;20049;-60
2023/08/06 07:44:55;;;;;;;2.47;1.52;;;;;;;16.45;70.92;100526.81;5136602;27;20100;-60
2023/08/06 07:47:23;;;;;;;2.58;1.80;;;;;;;16.43;71.02;100531.69;5126253;28;20092;-60
2023/08/06 07:49:51;;;;;;;2.67;1.80;;;;;;;16.37;71.27;100530.84;5142451;27;20046;-60
2023/08/06 07:52:19;;;;;;;3.03;1.90;;;;;;;16.40;71.05;100538.47;5136833;27;20065;-60
2023/08/06 07:54:48;;;;;;;2.40;1.60;;;;;;;16.36;71.17;100540.06;5125543;28;20192;-60
2023/08/06 07:57:16;;;;;;;3.70;2.25;;;;;;;16.34;71.34;100536.81;5126128;28;20048;-60
2023/08/06 07:59:44;;;;;;;3.88;2.20;;;;;;;16.33;71.31;100546.03;5129441;28;20050;-60
2023/08/06 08:02:12;;;;;;;3.30;1.92;;;;;;;16.31;71.69;100541.97;5130051;28;20047;-60
2023/08/06 08:04:39;;;;;;;4.10;2.05;;;;;;;16.31;71.56;100552.81;5130425;28;20048;-60
2023/08/06 08:07:07;;;;;;;3.75;1.90;;;;;;;16.31;71.74;100548.19;5130218;28;20048;-60
2023/08/06 08:09:35;;;;;;;3.85;1.80;;;;;;;16.28;72.08;100548.72;5129856;28;20165;-60
2023/08/06 08:12:05;;;;;;;5.03;2.10;;;;;;;16.29;71.81;100544.94;5130102;28;20497;-60
2023/08/06 08:14:35;;;;;;;3.10;2.03;;;;;;;16.32;71.86;100551.72;5129997;28;20047;-60
2023/08/06 08:17:03;;;;;;;4.93;2.40;;;;;;;16.32;72.08;100554.44;5129963;27;20047;-60
2023/08/06 08:19:31;;;;;;;3.50;2.05;;;;;;;16.32;72.02;100546.28;5129938;28;20052;-60
2023/08/06 08:21:59;;;;;;;5.93;2.75;;;;;;;16.31;72.07;100559.03;5129610;28;20044;-60
2023/08/06 08:24:27;;;;;;;3.15;1.95;;;;;;;16.32;72.32;100557.16;5159867;27;20051;-60
2023/08/06 08:26:55;;;;;;;4.22;2.30;;;;;;;16.34;72.39;100563.13;5150449;27;20048;-60
2023/08/06 08:29:24;;;;;;;3.90;2.08;;;;;;;16.36;72.41;100569.09;5150298;27;20046;-60
2023/08/06 08:31:52;;;;;;;4.53;2.10;;;;;;;16.37;72.35;100576.16;5129985;27;20044;-60
2023/08/06 08:34:20;;;;;;;3.65;1.90;;;;;;;16.36;72.31;100578.03;5142415;27;20043;-60
2023/08/06 08:36:49;;;;;;;3.33;1.70;;;;;;;16.36;72.28;100571.81;5150186;27;20039;-60
2023/08/06 08:39:17;;;;;;;4.03;2.10;;;;;;;16.35;72.45;100573.69;5135991;27;20047;-60
2023/08/06 08:41:45;;;;;;;4.70;2.30;;;;;;;16.36;72.32;100578.03;5129269;27;20047;-60
2023/08/06 08:44:17;;;;;;;4.70;2.20;;;;;;;16.36;72.19;100575.31;5170505;27;20463;-60
2023/08/06 08:46:49;;;;;;;4.65;2.15;;;;;;;16.36;72.07;100583.47;5170508;27;20107;-60
2023/08/06 08:49:17;;;;;;;6.80;2.55;;;;;;;16.36;72.00;100585.38;5166895;27;20046;-60
2023/08/06 08:51:46;;;;;;;6.40;2.50;;;;;;;16.36;72.09;100588.88;5143647;27;20043;-60
2023/08/06 08:54:16;;;;;;;4.75;2.10;;;;;;;16.35;71.98;100586.44;5128334;28;20145;-61
2023/08/06 08:56:44;;;;;;;6.80;2.75;;;;;;;16.35;71.90;100587.25;5129224;28;20052;-60
2023/08/06 08:59:12;;;;;;;4.57;2.47;;;;;;;16.36;71.90;100588.88;5128929;27;20043;-60
2023/08/06 09:01:43;;;;;;;6.78;2.63;;;;;;;16.37;72.04;100589.72;5129097;28;20112;-60
2023/08/06 09:04:13;;;;;;;3.58;1.90;;;;;;;16.37;71.94;100601.38;5128855;28;20055;-60
2023/08/06 09:06:42;;;;;;;4.45;2.28;;;;;;;16.37;71.88;100601.38;5129119;28;20069;-60
2023/08/06 09:09:14;;;;;;;3.10;1.73;;;;;;;16.37;71.85;100601.38;5128330;27;20059;-60
2023/08/06 09:11:45;;;;;;;4.88;1.95;;;;;;;16.37;71.91;100601.38;5128870;28;20455;-60
2023/08/06 09:14:13;;;;;;;8.10;2.88;;;;;;;16.37;72.01;100606.78;5128428;27;20047;-60
2023/08/06 09:16:41;;;;;;;5.95;2.15;;;;;;;16.38;71.99;100618.47;5128922;28;20442;-60
2023/08/06 09:19:09;;;;;;;4.93;2.67;;;;;;;16.38;72.07;100623.88;5128778;27;20051;-60
2023/08/06 09:21:40;;;;;;;6.80;2.38;;;;;;;16.39;72.24;100620.09;5128411;27;20112;-60
2023/08/06 09:24:10;;;;;;;4.80;2.22;;;;;;;16.38;72.15;100627.41;5153399;27;20520;-60
2023/08/06 09:26:38;;;;;;;4.60;2.33;;;;;;;16.40;72.01;100630.69;5158488;27;20051;-60
2023/08/06 09:29:07;;;;;;;6.65;2.25;;;;;;;16.40;72.18;100640.72;5128745;28;20104;-60
2023/08/06 09:31:41;;;;;;;5.32;2.05;;;;;;;16.41;72.08;100640.44;5140742;27;20043;-61
2023/08/06 09:34:13;;;;;;;7.30;2.47;;;;;;;16.42;72.13;100646.69;5145175;27;20126;-60
2023/08/06 09:36:43;;;;;;;7.07;2.60;;;;;;;16.43;72.09;100642.91;5165965;27;20092;-60
2023/08/06 09:39:15;;;;;;;3.97;1.98;;;;;;;16.43;72.03;100654.56;5146843;27;20072;-60
2023/08/06 09:41:44;;;;;;;4.93;2.08;;;;;;;16.43;71.86;100649.13;5128555;28;20050;-60
2023/08/06 09:44:17;;;;;;;7.38;2.13;;;;;;;16.46;72.09;100654.03;5128160;28;20054;-61
2023/08/06 09:46:49;;;;;;;4.60;1.80;;;;;;;16.43;71.82;100651.03;5128050;28;20569;-59
2023/08/06 09:49:16;;;;;;;5.30;2.10;;;;;;;16.46;71.84;100670.31;5134671;27;20064;-60
2023/08/06 09:51:46;;;;;;;6.68;2.47;;;;;;;16.45;71.88;100667.84;5169647;27;20053;-60
2023/08/06 09:54:16;;;;;;;5.15;2.08;;;;;;;16.48;71.88;100675.47;5154508;27;20085;-60
2023/08/06 09:56:55;;;;;;;5.88;2.03;;;;;;;16.47;71.91;100676.53;5139970;27;20051;-60
2023/08/06 09:59:24;;;;;;;3.92;1.48;;;;;;;16.47;71.92;100671.13;5127989;28;20044;-60
2023/08/06 10:01:52;;;;;;;5.60;2.53;;;;;;;16.46;71.79;100675.72;5128217;28;20047;-60
2023/08/06 10:04:21;;;;;;;3.13;1.73;;;;;;;16.46;71.91;100675.72;5127636;27;20420;-60
2023/08/06 10:06:55;;;;;;;5.43;1.75;;;;;;;16.47;72.06;100687.41;5127755;28;20071;-60
2023/08/06 10:09:24;;;;;;;6.70;1.75;;;;;;;16.47;71.99;100682.78;5127657;27;20105;-60
2023/08/06 10:11:53;;;;;;;3.72;1.77;;;;;;;16.48;72.09;100687.13;5127785;28;20047;-61
2023/08/06 10:14:25;;;;;;;5.50;2.17;;;;;;;16.47;72.14;100685.50;5127890;28;20047;-60
2023/08/06 10:16:55;;;;;;;8.90;2.15;;;;;;;16.47;71.84;100693.63;5127854;28;20047;-60
2023/08/06 10:19:24;;;;;;;9.50;1.95;;;;;;;16.48;72.03;100691.75;5127436;27;20101;-60
2023/08/06 10:22:13;;;;;;;5.35;1.73;;;;;;;16.47;72.09;100687.41;5126861;28;20058;-60
2023/08/06 10:24:51;;;;;;;4.50;1.98;;;;;;;16.47;72.34;100685.50;5161373;27;20047;-60
2023/08/06 10:27:31;;;;;;;4.28;2.28;;;;;;;16.46;72.25;100693.91;5151681;27;20047;-60
2023/08/06 10:30:23;;;;;;;6.95;2.42;;;;;;;16.44;72.25;100691.44;5127400;28;20047;-60
2023/08/06 10:32:52;;;;;;;9.63;2.33;;;;;;;16.44;72.36;100696.06;5130080;27;20050;-59
2023/08/06 10:35:31;;;;;;;6.72;2.20;;;;;;;16.45;72.50;100689.56;5132978;27;20051;-60
2023/08/06 10:38:04;;;;;;;5.68;1.90;;;;;;;16.46;72.46;100691.19;5142097;27;20092;-60
2023/08/06 10:40:33;;;;;;;9.75;2.13;;;;;;;16.47;72.54;100696.34;5131269;27;20057;-60
2023/08/06 10:43:01;;;;;;;8.73;2.13;;;;;;;16.48;72.53;100691.75;5148497;27;20050;-60
2023/08/06 10:45:30;;;;;;;5.68;1.90;;;;;;;16.47;72.59;100695.53;5165195;27;20046;-60
2023/08/06 10:47:58;;;;;;;6.28;2.20;;;;;;;16.50;72.49;100701.25;5127145;28;20067;-60
2023/08/06 10:50:26;;;;;;;3.85;1.92;;;;;;;16.50;72.54;100695.00;5136375;27;20135;-61
2023/08/06 10:52:54;;;;;;;4.90;1.80;;;;;;;16.50;72.50;100698.53;5129036;27;20047;-60
2023/08/06 10:55:28;;;;;;;4.65;2.10;;;;;;;16.50;72.38;100698.53;5146969;27;20047;-60
2023/08/06 10:57:58;;;;;;;5.10;1.77;;;;;;;16.51;72.62;100702.06;5146368;27;20051;-60
2023/08/06 11:00:26;;;;;;;3.25;1.50;;;;;;;16.50;72.57;100703.97;5126910;28;20058;-60
2023/08/06 11:02:54;;;;;;;8.18;1.70;;;;;;;16.52;72.66;100706.41;5126473;28;20052;-60
2023/08/06 11:05:23;;;;;;;11.85;2.50;;;;;;;16.51;72.64;100710.19;5126572;28;20048;-60
2023/08/06 11:07:52;;;;;;;4.25;2.00;;;;;;;16.52;72.75;100709.13;5126655;28;20462;-61
2023/08/06 11:10:20;;;;;;;5.30;1.85;;;;;;;16.50;72.72;100714.00;5126468;28;20047;-60
2023/08/06 11:12:49;;;;;;;9.05;1.73;;;;;;;16.49;72.71;100710.47;5126059;27;20073;-60
2023/08/06 11:15:17;;;;;;;6.35;2.28;;;;;;;16.49;72.88;100715.06;5126646;28;20044;-60
2023/08/06 11:17:44;;;;;;;5.20;1.77;;;;;;;16.51;73.11;100721.06;5126598;28;20112;-60
2023/08/06 11:20:12;;;;;;;4.40;2.30;;;;;;;16.50;73.12;100714.00;5126273;28;20067;-60
2023/08/06 11:22:44;;;;;;;6.28;2.03;;;;;;;16.50;73.21;100714.00;5126575;27;20043;-61
2023/08/06 11:25:12;;;;;;;8.73;2.25;;;;;;;16.51;73.22;100723.75;5146498;27;20072;-60
2023/08/06 11:27:39;;;;;;;5.68;2.20;;;;;;;16.49;72.98;100715.88;5146715;27;20048;-61
2023/08/06 11:30:12;;;;;;;4.97;1.60;;;;;;;16.49;73.13;100717.78;5126302;27;20047;-60
2023/08/06 11:32:46;;;;;;;5.28;2.25;;;;;;;16.48;73.31;100716.16;5126672;28;20454;-60